sensor_id;sensor_type;location;lat;lon;timestamp;temperature;humidity
16408;DHT22;8313;49.894;8.084;2024-03-08T00:00:00;7.20;99.90
16408;DHT22;8313;49.894;8.084;2024-03-08T00:02:37;7.10;99.90
16408;DHT22;8313;49.894;8.084;2024-03-08T00:05:05;7.10;99.90
16408;DHT22;8313;49.894;8.084;2024-03-08T00:07:32;7.10;99.90
16408;DHT22;8313;49.894;8.084;2024-03-08T00:09:58;7.10;99.90
16408;DHT22;8313;49.894;8.084;2024-03-08T00:12:23;7.10;99.90
16408;DHT22;8313;49.894;8.084;2024-03-08T00:14:51;7.10;99.90
16408;DHT22;8313;49.894;8.084;2024-03-08T00:17:19;7.00;99.90
16408;DHT22;8313;49.894;8.084;2024-03-08T00:19:44;7.00;99.90
16408;DHT22;8313;49.894;8.084;2024-03-08T00:22:10;6.90;99.90
16408;DHT22;8313;49.894;8.084;2024-03-08T00:24:36;7.00;99.90
16408;DHT22;8313;49.894;8.084;2024-03-08T00:27:02;7.00;99.90
16408;DHT22;8313;49.894;8.084;2024-03-08T00:29:30;7.00;99.90
16408;DHT22;8313;49.894;8.084;2024-03-08T00:31:56;6.90;99.90
16408;DHT22;8313;49.894;8.084;2024-03-08T00:34:21;7.00;99.90
16408;DHT22;8313;49.894;8.084;2024-03-08T00:36:47;7.00;99.90
16408;DHT22;8313;49.894;8.084;2024-03-08T00:39:13;7.00;99.90
16408;DHT22;8313;49.894;8.084;2024-03-08T00:41:38;7.10;99.90
16408;DHT22;8313;49.894;8.084;2024-03-08T00:44:04;7.00;99.90
16408;DHT22;8313;49.894;8.084;2024-03-08T00:46:30;7.00;99.90
16408;DHT22;8313;49.894;8.084;2024-03-08T00:48:57;7.00;99.90
16408;DHT22;8313;49.894;8.084;2024-03-08T00:51:22;7.00;99.90
16408;DHT22;8313;49.894;8.084;2024-03-08T00:53:48;6.90;99.90
16408;DHT22;8313;49.894;8.084;2024-03-08T00:56:13;6.90;99.90
16408;DHT22;8313;49.894;8.084;2024-03-08T00:58:39;6.90;99.90
16408;DHT22;8313;49.894;8.084;2024-03-08T01:01:05;6.90;99.90
16408;DHT22;8313;49.894;8.084;2024-03-08T01:03:31;6.90;99.90
16408;DHT22;8313;49.894;8.084;2024-03-08T01:05:57;6.80;99.90
16408;DHT22;8313;49.894;8.084;2024-03-08T01:08:25;6.70;99.90
16408;DHT22;8313;49.894;8.084;2024-03-08T01:10:50;6.70;99.90
16408;DHT22;8313;49.894;8.084;2024-03-08T01:13:16;6.70;99.90
16408;DHT22;8313;49.894;8.084;2024-03-08T01:15:42;6.70;99.90
16408;DHT22;8313;49.894;8.084;2024-03-08T01:18:07;6.70;99.90
16408;DHT22;8313;49.894;8.084;2024-03-08T01:20:33;6.70;99.90
16408;DHT22;8313;49.894;8.084;2024-03-08T01:22:59;6.70;99.90
16408;DHT22;8313;49.894;8.084;2024-03-08T01:25:24;6.70;99.90
16408;DHT22;8313;49.894;8.084;2024-03-08T01:27:50;6.60;99.90
16408;DHT22;8313;49.894;8.084;2024-03-08T01:30:16;6.70;99.90
16408;DHT22;8313;49.894;8.084;2024-03-08T01:32:43;6.70;99.90
16408;DHT22;8313;49.894;8.084;2024-03-08T01:35:09;6.60;99.90
16408;DHT22;8313;49.894;8.084;2024-03-08T01:37:35;6.60;99.90
16408;DHT22;8313;49.894;8.084;2024-03-08T01:40:01;6.60;99.90
16408;DHT22;8313;49.894;8.084;2024-03-08T01:42:28;6.60;99.90
16408;DHT22;8313;49.894;8.084;2024-03-08T01:44:54;6.60;99.90
16408;DHT22;8313;49.894;8.084;2024-03-08T01:47:21;6.60;99.90
16408;DHT22;8313;49.894;8.084;2024-03-08T01:49:50;6.60;99.90
16408;DHT22;8313;49.894;8.084;2024-03-08T01:52:17;6.60;99.90
16408;DHT22;8313;49.894;8.084;2024-03-08T01:54:44;6.60;99.90
16408;DHT22;8313;49.894;8.084;2024-03-08T01:57:11;6.60;99.90
16408;DHT22;8313;49.894;8.084;2024-03-08T01:59:37;6.50;99.90
16408;DHT22;8313;49.894;8.084;2024-03-08T02:02:04;6.50;99.90
16408;DHT22;8313;49.894;8.084;2024-03-08T02:04:31;6.50;99.90
16408;DHT22;8313;49.894;8.084;2024-03-08T02:06:57;6.50;99.90
16408;DHT22;8313;49.894;8.084;2024-03-08T02:09:25;6.50;99.90
16408;DHT22;8313;49.894;8.084;2024-03-08T02:11:51;6.40;99.90
16408;DHT22;8313;49.894;8.084;2024-03-08T02:14:19;6.40;99.90
16408;DHT22;8313;49.894;8.084;2024-03-08T02:16:44;6.40;99.90
16408;DHT22;8313;49.894;8.084;2024-03-08T02:19:10;6.40;99.90
16408;DHT22;8313;49.894;8.084;2024-03-08T02:21:36;6.40;99.90
16408;DHT22;8313;49.894;8.084;2024-03-08T02:24:03;6.40;99.90
16408;DHT22;8313;49.894;8.084;2024-03-08T02:26:29;6.40;99.90
16408;DHT22;8313;49.894;8.084;2024-03-08T02:28:54;6.30;99.90
16408;DHT22;8313;49.894;8.084;2024-03-08T02:31:20;6.30;99.90
16408;DHT22;8313;49.894;8.084;2024-03-08T02:33:46;6.30;99.90
16408;DHT22;8313;49.894;8.084;2024-03-08T02:36:13;6.20;99.90
16408;DHT22;8313;49.894;8.084;2024-03-08T02:38:38;6.20;99.90
16408;DHT22;8313;49.894;8.084;2024-03-08T02:41:07;6.20;99.90
16408;DHT22;8313;49.894;8.084;2024-03-08T02:43:34;6.20;99.90
16408;DHT22;8313;49.894;8.084;2024-03-08T02:46:00;6.20;99.90
16408;DHT22;8313;49.894;8.084;2024-03-08T02:48:25;6.20;99.90
16408;DHT22;8313;49.894;8.084;2024-03-08T02:50:51;6.10;99.90
16408;DHT22;8313;49.894;8.084;2024-03-08T02:53:17;6.10;99.90
16408;DHT22;8313;49.894;8.084;2024-03-08T02:55:44;6.00;99.90
16408;DHT22;8313;49.894;8.084;2024-03-08T02:58:10;6.00;99.90
16408;DHT22;8313;49.894;8.084;2024-03-08T03:00:36;6.00;99.90
16408;DHT22;8313;49.894;8.084;2024-03-08T03:03:03;5.90;99.90
16408;DHT22;8313;49.894;8.084;2024-03-08T03:05:29;5.90;99.90
16408;DHT22;8313;49.894;8.084;2024-03-08T03:07:55;5.90;99.90
16408;DHT22;8313;49.894;8.084;2024-03-08T03:10:21;5.90;99.90
16408;DHT22;8313;49.894;8.084;2024-03-08T03:12:47;5.90;99.90
16408;DHT22;8313;49.894;8.084;2024-03-08T03:15:17;5.90;99.90
16408;DHT22;8313;49.894;8.084;2024-03-08T03:17:49;5.80;99.90
16408;DHT22;8313;49.894;8.084;2024-03-08T03:20:18;5.80;99.90
16408;DHT22;8313;49.894;8.084;2024-03-08T03:22:58;5.80;99.90
16408;DHT22;8313;49.894;8.084;2024-03-08T03:25:26;5.80;99.90
16408;DHT22;8313;49.894;8.084;2024-03-08T03:27:59;5.80;99.90
16408;DHT22;8313;49.894;8.084;2024-03-08T03:30:25;5.70;99.90
16408;DHT22;8313;49.894;8.084;2024-03-08T03:33:02;5.70;99.90
16408;DHT22;8313;49.894;8.084;2024-03-08T03:35:32;5.70;99.90
16408;DHT22;8313;49.894;8.084;2024-03-08T03:37:58;5.60;99.90
16408;DHT22;8313;49.894;8.084;2024-03-08T03:40:31;5.60;99.90
16408;DHT22;8313;49.894;8.084;2024-03-08T03:42:57;5.60;99.90
16408;DHT22;8313;49.894;8.084;2024-03-08T03:45:23;5.60;99.90
16408;DHT22;8313;49.894;8.084;2024-03-08T03:47:49;5.50;99.90
16408;DHT22;8313;49.894;8.084;2024-03-08T03:50:15;5.50;99.90
16408;DHT22;8313;49.894;8.084;2024-03-08T03:52:40;5.50;99.90
16408;DHT22;8313;49.894;8.084;2024-03-08T03:55:08;5.50;99.90
16408;DHT22;8313;49.894;8.084;2024-03-08T03:57:33;5.50;99.90
16408;DHT22;8313;49.894;8.084;2024-03-08T03:59:59;5.50;99.90
16408;DHT22;8313;49.894;8.084;2024-03-08T04:02:25;5.40;99.90
16408;DHT22;8313;49.894;8.084;2024-03-08T04:04:52;5.40;99.90
16408;DHT22;8313;49.894;8.084;2024-03-08T04:07:20;5.40;99.90
16408;DHT22;8313;49.894;8.084;2024-03-08T04:09:46;5.30;99.90
16408;DHT22;8313;49.894;8.084;2024-03-08T04:12:12;5.30;99.90
16408;DHT22;8313;49.894;8.084;2024-03-08T04:14:40;5.30;99.90
16408;DHT22;8313;49.894;8.084;2024-03-08T04:17:06;5.30;99.90
16408;DHT22;8313;49.894;8.084;2024-03-08T04:19:34;5.30;99.90
16408;DHT22;8313;49.894;8.084;2024-03-08T04:22:00;5.20;99.90
16408;DHT22;8313;49.894;8.084;2024-03-08T04:24:26;5.20;99.90
16408;DHT22;8313;49.894;8.084;2024-03-08T04:26:52;5.20;99.90
16408;DHT22;8313;49.894;8.084;2024-03-08T04:29:18;5.20;99.90
16408;DHT22;8313;49.894;8.084;2024-03-08T04:31:44;5.20;99.90
16408;DHT22;8313;49.894;8.084;2024-03-08T04:34:10;5.20;99.90
16408;DHT22;8313;49.894;8.084;2024-03-08T04:36:36;5.10;99.90
16408;DHT22;8313;49.894;8.084;2024-03-08T04:39:02;5.10;99.90
16408;DHT22;8313;49.894;8.084;2024-03-08T04:41:28;5.00;99.90
16408;DHT22;8313;49.894;8.084;2024-03-08T04:43:56;5.00;99.90
16408;DHT22;8313;49.894;8.084;2024-03-08T04:46:23;5.00;99.90
16408;DHT22;8313;49.894;8.084;2024-03-08T04:48:49;5.00;99.90
16408;DHT22;8313;49.894;8.084;2024-03-08T04:51:15;5.00;99.90
16408;DHT22;8313;49.894;8.084;2024-03-08T04:53:41;5.10;99.90
16408;DHT22;8313;49.894;8.084;2024-03-08T04:56:07;5.00;99.90
16408;DHT22;8313;49.894;8.084;2024-03-08T04:58:35;5.00;99.90
16408;DHT22;8313;49.894;8.084;2024-03-08T05:01:01;5.00;99.90
16408;DHT22;8313;49.894;8.084;2024-03-08T05:03:27;5.00;99.90
16408;DHT22;8313;49.894;8.084;2024-03-08T05:05:54;5.00;99.90
16408;DHT22;8313;49.894;8.084;2024-03-08T05:08:19;5.00;99.90
16408;DHT22;8313;49.894;8.084;2024-03-08T05:10:45;5.00;99.90
16408;DHT22;8313;49.894;8.084;2024-03-08T05:13:12;4.90;99.90
16408;DHT22;8313;49.894;8.084;2024-03-08T05:15:38;4.90;99.90
16408;DHT22;8313;49.894;8.084;2024-03-08T05:18:05;4.90;99.90
16408;DHT22;8313;49.894;8.084;2024-03-08T05:20:31;4.90;99.90
16408;DHT22;8313;49.894;8.084;2024-03-08T05:22:57;4.90;99.90
16408;DHT22;8313;49.894;8.084;2024-03-08T05:25:26;4.90;99.90
16408;DHT22;8313;49.894;8.084;2024-03-08T05:27:52;4.90;99.90
16408;DHT22;8313;49.894;8.084;2024-03-08T05:30:18;4.80;99.90
16408;DHT22;8313;49.894;8.084;2024-03-08T05:32:43;4.80;99.90
16408;DHT22;8313;49.894;8.084;2024-03-08T05:35:12;4.70;99.90
16408;DHT22;8313;49.894;8.084;2024-03-08T05:37:38;4.70;99.90
16408;DHT22;8313;49.894;8.084;2024-03-08T05:40:06;4.70;99.90
16408;DHT22;8313;49.894;8.084;2024-03-08T05:42:35;4.70;99.90
16408;DHT22;8313;49.894;8.084;2024-03-08T05:45:04;4.70;99.90
16408;DHT22;8313;49.894;8.084;2024-03-08T05:47:32;4.70;99.90
16408;DHT22;8313;49.894;8.084;2024-03-08T05:49:58;4.70;99.90
16408;DHT22;8313;49.894;8.084;2024-03-08T05:52:24;4.60;99.90
16408;DHT22;8313;49.894;8.084;2024-03-08T05:54:51;4.60;99.90
16408;DHT22;8313;49.894;8.084;2024-03-08T05:57:17;4.60;99.90
16408;DHT22;8313;49.894;8.084;2024-03-08T05:59:43;4.60;99.90
16408;DHT22;8313;49.894;8.084;2024-03-08T06:02:09;4.60;99.90
16408;DHT22;8313;49.894;8.084;2024-03-08T06:04:34;4.60;99.90
16408;DHT22;8313;49.894;8.084;2024-03-08T06:07:00;4.60;99.90
16408;DHT22;8313;49.894;8.084;2024-03-08T06:09:28;4.60;99.90
16408;DHT22;8313;49.894;8.084;2024-03-08T06:11:54;4.60;99.90
16408;DHT22;8313;49.894;8.084;2024-03-08T06:14:20;4.50;99.90
16408;DHT22;8313;49.894;8.084;2024-03-08T06:16:46;4.50;99.90
16408;DHT22;8313;49.894;8.084;2024-03-08T06:19:13;4.50;99.90
16408;DHT22;8313;49.894;8.084;2024-03-08T06:21:39;4.50;99.90
16408;DHT22;8313;49.894;8.084;2024-03-08T06:24:05;4.40;99.90
16408;DHT22;8313;49.894;8.084;2024-03-08T06:26:30;4.40;99.90
16408;DHT22;8313;49.894;8.084;2024-03-08T06:28:56;4.40;99.90
16408;DHT22;8313;49.894;8.084;2024-03-08T06:31:22;4.30;99.90
16408;DHT22;8313;49.894;8.084;2024-03-08T06:33:49;4.30;99.90
16408;DHT22;8313;49.894;8.084;2024-03-08T06:36:16;4.30;99.90
16408;DHT22;8313;49.894;8.084;2024-03-08T06:38:46;4.30;99.90
16408;DHT22;8313;49.894;8.084;2024-03-08T06:41:11;4.40;99.90
16408;DHT22;8313;49.894;8.084;2024-03-08T06:43:44;4.30;99.90
16408;DHT22;8313;49.894;8.084;2024-03-08T06:46:10;4.30;99.90
16408;DHT22;8313;49.894;8.084;2024-03-08T06:48:38;4.30;99.90
16408;DHT22;8313;49.894;8.084;2024-03-08T06:51:04;4.20;99.90
16408;DHT22;8313;49.894;8.084;2024-03-08T06:53:30;4.20;99.90
16408;DHT22;8313;49.894;8.084;2024-03-08T06:55:57;4.10;99.90
16408;DHT22;8313;49.894;8.084;2024-03-08T06:58:23;4.20;99.90
16408;DHT22;8313;49.894;8.084;2024-03-08T07:00:48;4.20;99.90
16408;DHT22;8313;49.894;8.084;2024-03-08T07:03:18;4.30;99.90
16408;DHT22;8313;49.894;8.084;2024-03-08T07:05:43;4.20;99.90
16408;DHT22;8313;49.894;8.084;2024-03-08T07:08:09;4.30;99.90
16408;DHT22;8313;49.894;8.084;2024-03-08T07:10:35;4.30;99.90
16408;DHT22;8313;49.894;8.084;2024-03-08T07:13:02;4.30;99.90
16408;DHT22;8313;49.894;8.084;2024-03-08T07:15:28;4.20;99.90
16408;DHT22;8313;49.894;8.084;2024-03-08T07:17:54;4.30;99.90
16408;DHT22;8313;49.894;8.084;2024-03-08T07:20:20;4.30;99.90
16408;DHT22;8313;49.894;8.084;2024-03-08T07:22:47;4.30;99.90
16408;DHT22;8313;49.894;8.084;2024-03-08T07:25:17;4.20;99.90
16408;DHT22;8313;49.894;8.084;2024-03-08T07:27:55;4.20;99.90
16408;DHT22;8313;49.894;8.084;2024-03-08T07:30:23;4.30;99.90
16408;DHT22;8313;49.894;8.084;2024-03-08T07:33:08;4.30;99.90
16408;DHT22;8313;49.894;8.084;2024-03-08T07:35:37;4.40;99.90
16408;DHT22;8313;49.894;8.084;2024-03-08T07:38:07;4.40;99.90
16408;DHT22;8313;49.894;8.084;2024-03-08T07:40:39;4.50;99.90
16408;DHT22;8313;49.894;8.084;2024-03-08T07:43:09;4.50;99.90
16408;DHT22;8313;49.894;8.084;2024-03-08T07:45:39;4.60;99.90
16408;DHT22;8313;49.894;8.084;2024-03-08T07:48:06;4.60;99.90
16408;DHT22;8313;49.894;8.084;2024-03-08T07:50:38;4.60;99.90
16408;DHT22;8313;49.894;8.084;2024-03-08T07:53:07;4.60;99.90
16408;DHT22;8313;49.894;8.084;2024-03-08T07:55:33;4.70;99.90
16408;DHT22;8313;49.894;8.084;2024-03-08T07:58:01;4.60;99.90
16408;DHT22;8313;49.894;8.084;2024-03-08T08:00:26;4.70;99.90
16408;DHT22;8313;49.894;8.084;2024-03-08T08:02:53;4.60;99.90
16408;DHT22;8313;49.894;8.084;2024-03-08T08:05:19;4.80;99.90
16408;DHT22;8313;49.894;8.084;2024-03-08T08:07:45;5.00;99.90
16408;DHT22;8313;49.894;8.084;2024-03-08T08:10:14;5.10;99.90
16408;DHT22;8313;49.894;8.084;2024-03-08T08:12:47;4.90;99.90
16408;DHT22;8313;49.894;8.084;2024-03-08T08:15:13;5.00;99.90
16408;DHT22;8313;49.894;8.084;2024-03-08T08:17:41;5.00;99.90
16408;DHT22;8313;49.894;8.084;2024-03-08T08:20:09;5.00;99.90
16408;DHT22;8313;49.894;8.084;2024-03-08T08:22:34;4.90;99.90
16408;DHT22;8313;49.894;8.084;2024-03-08T08:25:00;4.90;99.90
16408;DHT22;8313;49.894;8.084;2024-03-08T08:27:27;5.00;99.90
16408;DHT22;8313;49.894;8.084;2024-03-08T08:29:52;5.10;99.90
16408;DHT22;8313;49.894;8.084;2024-03-08T08:32:18;5.30;99.90
16408;DHT22;8313;49.894;8.084;2024-03-08T08:34:44;5.30;99.90
16408;DHT22;8313;49.894;8.084;2024-03-08T08:37:10;5.40;99.90
16408;DHT22;8313;49.894;8.084;2024-03-08T08:39:35;5.40;99.90
16408;DHT22;8313;49.894;8.084;2024-03-08T08:42:03;5.40;99.90
16408;DHT22;8313;49.894;8.084;2024-03-08T08:44:29;5.60;99.90
16408;DHT22;8313;49.894;8.084;2024-03-08T08:46:57;5.70;99.90
16408;DHT22;8313;49.894;8.084;2024-03-08T08:49:22;5.60;99.90
16408;DHT22;8313;49.894;8.084;2024-03-08T08:51:49;5.60;99.90
16408;DHT22;8313;49.894;8.084;2024-03-08T08:54:16;5.70;99.90
16408;DHT22;8313;49.894;8.084;2024-03-08T08:56:42;5.80;99.90
16408;DHT22;8313;49.894;8.084;2024-03-08T08:59:12;5.90;99.90
16408;DHT22;8313;49.894;8.084;2024-03-08T09:01:50;6.10;99.90
16408;DHT22;8313;49.894;8.084;2024-03-08T09:04:19;6.00;99.90
16408;DHT22;8313;49.894;8.084;2024-03-08T09:06:45;5.90;99.90
16408;DHT22;8313;49.894;8.084;2024-03-08T09:09:11;5.90;99.90
16408;DHT22;8313;49.894;8.084;2024-03-08T09:16:48;5.90;99.90
16408;DHT22;8313;49.894;8.084;2024-03-08T09:19:14;5.90;99.90
16408;DHT22;8313;49.894;8.084;2024-03-08T09:21:40;5.80;99.90
16408;DHT22;8313;49.894;8.084;2024-03-08T09:24:06;5.80;99.90
16408;DHT22;8313;49.894;8.084;2024-03-08T09:26:32;5.80;99.90
16408;DHT22;8313;49.894;8.084;2024-03-08T09:28:59;5.80;99.90
16408;DHT22;8313;49.894;8.084;2024-03-08T09:31:25;5.90;99.90
16408;DHT22;8313;49.894;8.084;2024-03-08T09:33:51;6.10;99.90
16408;DHT22;8313;49.894;8.084;2024-03-08T09:36:17;6.20;99.90
16408;DHT22;8313;49.894;8.084;2024-03-08T09:38:43;6.20;99.90
16408;DHT22;8313;49.894;8.084;2024-03-08T09:41:09;6.10;99.90
16408;DHT22;8313;49.894;8.084;2024-03-08T09:43:36;6.20;99.90
16408;DHT22;8313;49.894;8.084;2024-03-08T09:46:03;6.20;99.90
16408;DHT22;8313;49.894;8.084;2024-03-08T09:48:29;6.50;99.90
16408;DHT22;8313;49.894;8.084;2024-03-08T09:50:55;6.60;99.90
16408;DHT22;8313;49.894;8.084;2024-03-08T09:53:22;6.80;99.90
16408;DHT22;8313;49.894;8.084;2024-03-08T09:55:48;6.70;99.90
16408;DHT22;8313;49.894;8.084;2024-03-08T09:58:16;6.50;99.90
16408;DHT22;8313;49.894;8.084;2024-03-08T10:00:51;6.70;99.90
16408;DHT22;8313;49.894;8.084;2024-03-08T10:03:16;6.70;99.90
16408;DHT22;8313;49.894;8.084;2024-03-08T10:05:42;6.80;99.90
16408;DHT22;8313;49.894;8.084;2024-03-08T10:08:10;6.90;99.90
16408;DHT22;8313;49.894;8.084;2024-03-08T10:10:36;7.10;99.90
16408;DHT22;8313;49.894;8.084;2024-03-08T10:13:06;7.30;99.90
16408;DHT22;8313;49.894;8.084;2024-03-08T10:15:32;6.90;99.90
16408;DHT22;8313;49.894;8.084;2024-03-08T10:18:01;7.00;99.90
16408;DHT22;8313;49.894;8.084;2024-03-08T10:20:30;7.20;99.90
16408;DHT22;8313;49.894;8.084;2024-03-08T10:22:59;7.10;99.90
16408;DHT22;8313;49.894;8.084;2024-03-08T10:25:25;7.20;99.90
16408;DHT22;8313;49.894;8.084;2024-03-08T10:27:51;7.50;99.90
16408;DHT22;8313;49.894;8.084;2024-03-08T10:30:17;7.60;99.90
16408;DHT22;8313;49.894;8.084;2024-03-08T10:32:47;7.40;99.90
16408;DHT22;8313;49.894;8.084;2024-03-08T10:35:13;7.40;99.90
16408;DHT22;8313;49.894;8.084;2024-03-08T10:37:50;7.50;99.90
16408;DHT22;8313;49.894;8.084;2024-03-08T10:40:24;7.50;99.90
16408;DHT22;8313;49.894;8.084;2024-03-08T10:42:54;7.50;99.90
16408;DHT22;8313;49.894;8.084;2024-03-08T10:48:22;8.20;99.90
16408;DHT22;8313;49.894;8.084;2024-03-08T10:50:49;8.60;99.90
16408;DHT22;8313;49.894;8.084;2024-03-08T10:53:18;8.50;99.90
16408;DHT22;8313;49.894;8.084;2024-03-08T10:55:47;8.70;99.90
16408;DHT22;8313;49.894;8.084;2024-03-08T10:58:16;9.00;99.90
16408;DHT22;8313;49.894;8.084;2024-03-08T11:00:42;9.20;99.90
16408;DHT22;8313;49.894;8.084;2024-03-08T11:08:41;8.90;99.90
16408;DHT22;8313;49.894;8.084;2024-03-08T11:13:53;9.30;99.90
16408;DHT22;8313;49.894;8.084;2024-03-08T11:18:53;9.40;99.90
16408;DHT22;8313;49.894;8.084;2024-03-08T11:21:19;9.60;99.90
16408;DHT22;8313;49.894;8.084;2024-03-08T11:23:59;9.60;99.90
16408;DHT22;8313;49.894;8.084;2024-03-08T11:26:25;9.70;99.90
16408;DHT22;8313;49.894;8.084;2024-03-08T11:28:50;10.00;99.90
16408;DHT22;8313;49.894;8.084;2024-03-08T11:33:46;10.10;99.90
16408;DHT22;8313;49.894;8.084;2024-03-08T11:36:21;9.90;99.90
16408;DHT22;8313;49.894;8.084;2024-03-08T11:38:48;10.00;99.90
16408;DHT22;8313;49.894;8.084;2024-03-08T11:41:16;10.20;99.90
16408;DHT22;8313;49.894;8.084;2024-03-08T11:43:43;10.10;99.90
16408;DHT22;8313;49.894;8.084;2024-03-08T11:46:14;9.90;99.90
16408;DHT22;8313;49.894;8.084;2024-03-08T11:48:44;9.80;99.90
16408;DHT22;8313;49.894;8.084;2024-03-08T11:51:14;9.80;99.90
16408;DHT22;8313;49.894;8.084;2024-03-08T11:53:40;9.30;99.90
16408;DHT22;8313;49.894;8.084;2024-03-08T11:56:10;9.40;99.90
16408;DHT22;8313;49.894;8.084;2024-03-08T11:58:37;9.60;99.90
16408;DHT22;8313;49.894;8.084;2024-03-08T12:01:06;9.60;99.90
16408;DHT22;8313;49.894;8.084;2024-03-08T12:03:33;9.30;99.90
16408;DHT22;8313;49.894;8.084;2024-03-08T12:06:04;9.60;99.90
16408;DHT22;8313;49.894;8.084;2024-03-08T12:08:32;10.10;99.90
16408;DHT22;8313;49.894;8.084;2024-03-08T12:10:58;10.30;99.90
16408;DHT22;8313;49.894;8.084;2024-03-08T12:13:35;10.30;99.90
16408;DHT22;8313;49.894;8.084;2024-03-08T12:16:04;10.40;99.90
16408;DHT22;8313;49.894;8.084;2024-03-08T12:18:34;10.40;99.90
16408;DHT22;8313;49.894;8.084;2024-03-08T12:21:07;10.40;99.90
16408;DHT22;8313;49.894;8.084;2024-03-08T12:23:37;10.50;99.90
16408;DHT22;8313;49.894;8.084;2024-03-08T12:26:14;10.70;99.90
16408;DHT22;8313;49.894;8.084;2024-03-08T12:28:42;10.70;99.90
16408;DHT22;8313;49.894;8.084;2024-03-08T12:31:11;10.80;99.90
16408;DHT22;8313;49.894;8.084;2024-03-08T12:33:50;10.70;99.90
16408;DHT22;8313;49.894;8.084;2024-03-08T12:36:16;10.50;99.90
16408;DHT22;8313;49.894;8.084;2024-03-08T12:38:48;10.50;99.90
16408;DHT22;8313;49.894;8.084;2024-03-08T12:41:15;10.60;99.90
16408;DHT22;8313;49.894;8.084;2024-03-08T12:43:43;10.70;99.90
16408;DHT22;8313;49.894;8.084;2024-03-08T12:46:14;10.80;99.90
16408;DHT22;8313;49.894;8.084;2024-03-08T12:48:40;10.80;99.90
16408;DHT22;8313;49.894;8.084;2024-03-08T12:51:09;10.60;99.90
16408;DHT22;8313;49.894;8.084;2024-03-08T12:53:35;10.30;99.90
16408;DHT22;8313;49.894;8.084;2024-03-08T12:56:01;10.00;99.90
16408;DHT22;8313;49.894;8.084;2024-03-08T12:58:29;10.20;99.90
16408;DHT22;8313;49.894;8.084;2024-03-08T13:00:55;10.20;99.90
16408;DHT22;8313;49.894;8.084;2024-03-08T13:03:20;10.40;99.90
16408;DHT22;8313;49.894;8.084;2024-03-08T13:05:48;10.30;99.90
16408;DHT22;8313;49.894;8.084;2024-03-08T13:08:15;10.10;99.90
16408;DHT22;8313;49.894;8.084;2024-03-08T13:10:41;10.20;99.90
16408;DHT22;8313;49.894;8.084;2024-03-08T13:13:09;10.30;99.90
16408;DHT22;8313;49.894;8.084;2024-03-08T13:15:35;10.00;99.90
16408;DHT22;8313;49.894;8.084;2024-03-08T13:18:01;9.90;99.90
16408;DHT22;8313;49.894;8.084;2024-03-08T13:20:28;9.90;99.90
16408;DHT22;8313;49.894;8.084;2024-03-08T13:22:55;10.00;99.90
16408;DHT22;8313;49.894;8.084;2024-03-08T13:25:21;10.00;99.90
16408;DHT22;8313;49.894;8.084;2024-03-08T13:27:49;9.80;99.90
16408;DHT22;8313;49.894;8.084;2024-03-08T13:30:15;9.90;99.90
16408;DHT22;8313;49.894;8.084;2024-03-08T13:32:44;10.10;99.90
16408;DHT22;8313;49.894;8.084;2024-03-08T13:35:11;10.00;99.90
16408;DHT22;8313;49.894;8.084;2024-03-08T13:37:42;9.90;99.90
16408;DHT22;8313;49.894;8.084;2024-03-08T13:40:09;9.70;99.90
16408;DHT22;8313;49.894;8.084;2024-03-08T13:42:42;9.90;99.90
16408;DHT22;8313;49.894;8.084;2024-03-08T13:45:11;10.00;99.90
16408;DHT22;8313;49.894;8.084;2024-03-08T13:47:37;10.00;99.90
16408;DHT22;8313;49.894;8.084;2024-03-08T13:50:06;10.00;99.90
16408;DHT22;8313;49.894;8.084;2024-03-08T13:52:33;10.00;99.90
16408;DHT22;8313;49.894;8.084;2024-03-08T13:55:00;10.00;99.90
16408;DHT22;8313;49.894;8.084;2024-03-08T13:57:26;9.90;99.90
16408;DHT22;8313;49.894;8.084;2024-03-08T13:59:53;9.80;99.90
16408;DHT22;8313;49.894;8.084;2024-03-08T14:02:19;10.20;99.90
16408;DHT22;8313;49.894;8.084;2024-03-08T14:04:44;10.30;99.90
16408;DHT22;8313;49.894;8.084;2024-03-08T14:07:10;10.00;99.90
16408;DHT22;8313;49.894;8.084;2024-03-08T14:09:37;10.10;99.90
16408;DHT22;8313;49.894;8.084;2024-03-08T14:12:08;10.60;99.90
16408;DHT22;8313;49.894;8.084;2024-03-08T14:14:34;10.70;99.90
16408;DHT22;8313;49.894;8.084;2024-03-08T14:17:03;10.50;99.90
16408;DHT22;8313;49.894;8.084;2024-03-08T14:19:29;10.70;99.90
16408;DHT22;8313;49.894;8.084;2024-03-08T14:21:59;10.60;99.90
16408;DHT22;8313;49.894;8.084;2024-03-08T14:24:25;10.50;99.90
16408;DHT22;8313;49.894;8.084;2024-03-08T14:26:51;10.60;99.90
16408;DHT22;8313;49.894;8.084;2024-03-08T14:29:17;10.70;99.90
16408;DHT22;8313;49.894;8.084;2024-03-08T14:31:44;10.80;99.90
16408;DHT22;8313;49.894;8.084;2024-03-08T14:34:10;10.70;99.90
16408;DHT22;8313;49.894;8.084;2024-03-08T14:36:36;11.10;99.90
16408;DHT22;8313;49.894;8.084;2024-03-08T14:39:03;11.20;99.90
16408;DHT22;8313;49.894;8.084;2024-03-08T14:41:29;11.30;99.90
16408;DHT22;8313;49.894;8.084;2024-03-08T14:43:55;11.00;99.90
16408;DHT22;8313;49.894;8.084;2024-03-08T14:46:22;10.80;99.90
16408;DHT22;8313;49.894;8.084;2024-03-08T14:48:49;10.90;99.90
16408;DHT22;8313;49.894;8.084;2024-03-08T14:51:20;10.90;99.90
16408;DHT22;8313;49.894;8.084;2024-03-08T14:53:54;10.80;99.90
16408;DHT22;8313;49.894;8.084;2024-03-08T14:56:21;10.70;99.90
16408;DHT22;8313;49.894;8.084;2024-03-08T14:58:47;10.70;99.90
16408;DHT22;8313;49.894;8.084;2024-03-08T15:01:15;10.70;99.90
16408;DHT22;8313;49.894;8.084;2024-03-08T15:03:44;10.90;99.90
16408;DHT22;8313;49.894;8.084;2024-03-08T15:06:09;10.90;99.90
16408;DHT22;8313;49.894;8.084;2024-03-08T15:08:36;10.70;99.90
16408;DHT22;8313;49.894;8.084;2024-03-08T15:11:02;10.60;99.90
16408;DHT22;8313;49.894;8.084;2024-03-08T15:13:28;10.50;99.90
16408;DHT22;8313;49.894;8.084;2024-03-08T15:16:00;10.60;99.90
16408;DHT22;8313;49.894;8.084;2024-03-08T15:18:26;10.60;99.90
16408;DHT22;8313;49.894;8.084;2024-03-08T15:20:56;10.80;99.90
16408;DHT22;8313;49.894;8.084;2024-03-08T15:23:21;10.90;99.90
16408;DHT22;8313;49.894;8.084;2024-03-08T15:25:50;11.00;99.90
16408;DHT22;8313;49.894;8.084;2024-03-08T15:28:16;11.10;99.90
16408;DHT22;8313;49.894;8.084;2024-03-08T15:30:46;11.10;99.90
16408;DHT22;8313;49.894;8.084;2024-03-08T15:33:15;11.00;99.90
16408;DHT22;8313;49.894;8.084;2024-03-08T15:35:50;10.80;99.90
16408;DHT22;8313;49.894;8.084;2024-03-08T15:38:23;10.90;99.90
16408;DHT22;8313;49.894;8.084;2024-03-08T15:40:50;10.90;99.90
16408;DHT22;8313;49.894;8.084;2024-03-08T15:43:17;11.00;99.90
16408;DHT22;8313;49.894;8.084;2024-03-08T15:45:45;10.90;99.90
16408;DHT22;8313;49.894;8.084;2024-03-08T15:48:12;10.70;99.90
16408;DHT22;8313;49.894;8.084;2024-03-08T15:50:38;10.60;99.90
16408;DHT22;8313;49.894;8.084;2024-03-08T15:53:04;10.60;99.90
16408;DHT22;8313;49.894;8.084;2024-03-08T15:55:30;10.60;99.90
16408;DHT22;8313;49.894;8.084;2024-03-08T15:57:57;10.60;99.90
16408;DHT22;8313;49.894;8.084;2024-03-08T16:00:26;10.40;99.90
16408;DHT22;8313;49.894;8.084;2024-03-08T16:03:24;10.30;99.90
16408;DHT22;8313;49.894;8.084;2024-03-08T16:05:50;10.30;99.90
16408;DHT22;8313;49.894;8.084;2024-03-08T16:08:17;10.30;99.90
16408;DHT22;8313;49.894;8.084;2024-03-08T16:10:46;10.30;99.90
16408;DHT22;8313;49.894;8.084;2024-03-08T16:13:18;10.40;99.90
16408;DHT22;8313;49.894;8.084;2024-03-08T16:15:44;10.40;99.90
16408;DHT22;8313;49.894;8.084;2024-03-08T16:18:11;10.50;99.90